CYYR

Goose Bay Airport

Goose Bay, Canada
METAR CYYR 170200Z 27012KT 15SM -SHSN OVC033 M11/M17 A2928 RMK SC8 SLP919
Observed Flight Rules
Dec-17 @ 02:00 UTC (18 minutes ago) Visual Flight Rules
Wind Visibility Clouds Conditions
270° at 12 knots 15 miles
  • Overcast at 3,300' AGL
  • Light Snow
Temperatures Readings
Current -11°C / 12°F
Dewpoint -17°C / 1°F
Humidity 62%
Altimeter 29.28" Hg
Pressure 991.9 hPa
Elevation 49
METAR CYYR 170200Z 27012KT 15SM -SHSN OVC033 M11/M17 A2928 RMK SC8 SLP919
Observed Flight Rules
Dec-17 @ 02:00 UTC
(18 minutes ago)
VFR
Wind Visibility
270° at 12 knots 15 miles
Clouds
  • Overcast at 3,300' AGL
Conditions
  • Light Snow
Temperature Dewpoint
-11°C / 12°F -17°C / 1°F
Humidity Altimeter Pressure
62% 29.28" Hg 991.9 hPa